sensor_id;sensor_type;location;lat;lon;timestamp;temperature;humidity
18694;DHT22;9477;51.414;10.362;2024-02-23T00:00:24;12.40;96.70
18694;DHT22;9477;51.414;10.362;2024-02-23T00:02:26;12.30;96.60
18694;DHT22;9477;51.414;10.362;2024-02-23T00:04:30;12.20;96.40
18694;DHT22;9477;51.414;10.362;2024-02-23T00:06:34;12.20;97.00
18694;DHT22;9477;51.414;10.362;2024-02-23T00:08:36;12.20;96.80
18694;DHT22;9477;51.414;10.362;2024-02-23T00:10:40;12.20;96.40
18694;DHT22;9477;51.414;10.362;2024-02-23T00:12:43;12.20;96.50
18694;DHT22;9477;51.414;10.362;2024-02-23T00:14:46;12.10;96.80
18694;DHT22;9477;51.414;10.362;2024-02-23T00:16:49;12.10;97.00
18694;DHT22;9477;51.414;10.362;2024-02-23T00:18:52;12.10;96.90
18694;DHT22;9477;51.414;10.362;2024-02-23T00:20:56;12.10;97.10
18694;DHT22;9477;51.414;10.362;2024-02-23T00:23:01;12.20;97.20
18694;DHT22;9477;51.414;10.362;2024-02-23T00:25:04;12.20;97.00
18694;DHT22;9477;51.414;10.362;2024-02-23T00:27:07;12.20;96.90
18694;DHT22;9477;51.414;10.362;2024-02-23T00:29:10;12.10;96.80
18694;DHT22;9477;51.414;10.362;2024-02-23T00:31:13;12.10;96.80
18694;DHT22;9477;51.414;10.362;2024-02-23T00:33:15;12.10;97.00
18694;DHT22;9477;51.414;10.362;2024-02-23T00:35:17;12.10;97.00
18694;DHT22;9477;51.414;10.362;2024-02-23T00:37:22;12.10;96.40
18694;DHT22;9477;51.414;10.362;2024-02-23T00:39:25;12.00;96.70
18694;DHT22;9477;51.414;10.362;2024-02-23T00:41:27;12.10;96.30
18694;DHT22;9477;51.414;10.362;2024-02-23T00:43:37;12.00;95.90
18694;DHT22;9477;51.414;10.362;2024-02-23T00:45:40;11.90;96.40
18694;DHT22;9477;51.414;10.362;2024-02-23T00:47:43;11.90;96.50
18694;DHT22;9477;51.414;10.362;2024-02-23T00:49:45;12.00;96.50
18694;DHT22;9477;51.414;10.362;2024-02-23T00:51:48;12.00;96.50
18694;DHT22;9477;51.414;10.362;2024-02-23T00:53:52;12.00;96.80
18694;DHT22;9477;51.414;10.362;2024-02-23T00:55:55;12.10;96.90
18694;DHT22;9477;51.414;10.362;2024-02-23T00:57:58;12.10;96.90
18694;DHT22;9477;51.414;10.362;2024-02-23T01:00:02;12.10;96.90
18694;DHT22;9477;51.414;10.362;2024-02-23T01:02:06;12.20;97.40
18694;DHT22;9477;51.414;10.362;2024-02-23T01:04:08;12.20;97.00
18694;DHT22;9477;51.414;10.362;2024-02-23T01:06:11;12.20;97.00
18694;DHT22;9477;51.414;10.362;2024-02-23T01:08:14;12.30;97.10
18694;DHT22;9477;51.414;10.362;2024-02-23T01:10:18;12.30;97.10
18694;DHT22;9477;51.414;10.362;2024-02-23T01:12:21;12.30;96.70
18694;DHT22;9477;51.414;10.362;2024-02-23T01:14:24;12.30;96.60
18694;DHT22;9477;51.414;10.362;2024-02-23T01:16:27;12.20;95.50
18694;DHT22;9477;51.414;10.362;2024-02-23T01:18:29;12.00;95.40
18694;DHT22;9477;51.414;10.362;2024-02-23T01:20:32;12.00;96.00
18694;DHT22;9477;51.414;10.362;2024-02-23T01:22:35;11.90;95.80
18694;DHT22;9477;51.414;10.362;2024-02-23T01:24:38;11.80;95.50
18694;DHT22;9477;51.414;10.362;2024-02-23T01:26:43;11.80;95.30
18694;DHT22;9477;51.414;10.362;2024-02-23T01:28:45;11.80;95.10
18694;DHT22;9477;51.414;10.362;2024-02-23T01:30:47;11.70;94.80
18694;DHT22;9477;51.414;10.362;2024-02-23T01:32:50;11.70;95.00
18694;DHT22;9477;51.414;10.362;2024-02-23T01:34:53;11.60;95.00
18694;DHT22;9477;51.414;10.362;2024-02-23T01:36:56;11.60;95.10
18694;DHT22;9477;51.414;10.362;2024-02-23T01:38:59;11.70;95.20
18694;DHT22;9477;51.414;10.362;2024-02-23T01:41:03;11.60;94.90
18694;DHT22;9477;51.414;10.362;2024-02-23T01:43:08;11.60;95.30
18694;DHT22;9477;51.414;10.362;2024-02-23T01:45:11;11.60;95.70
18694;DHT22;9477;51.414;10.362;2024-02-23T01:47:15;11.60;95.30
18694;DHT22;9477;51.414;10.362;2024-02-23T01:49:18;11.60;95.70
18694;DHT22;9477;51.414;10.362;2024-02-23T01:51:23;11.70;95.70
18694;DHT22;9477;51.414;10.362;2024-02-23T01:53:27;11.60;95.80
18694;DHT22;9477;51.414;10.362;2024-02-23T01:55:31;11.60;95.70
18694;DHT22;9477;51.414;10.362;2024-02-23T01:57:37;11.70;95.60
18694;DHT22;9477;51.414;10.362;2024-02-23T01:59:52;11.60;95.60
18694;DHT22;9477;51.414;10.362;2024-02-23T02:01:55;11.50;95.50
18694;DHT22;9477;51.414;10.362;2024-02-23T02:03:58;11.50;95.40
18694;DHT22;9477;51.414;10.362;2024-02-23T02:06:01;11.50;95.60
18694;DHT22;9477;51.414;10.362;2024-02-23T02:08:04;11.60;95.70
18694;DHT22;9477;51.414;10.362;2024-02-23T02:10:09;11.60;95.40
18694;DHT22;9477;51.414;10.362;2024-02-23T02:12:12;11.60;95.20
18694;DHT22;9477;51.414;10.362;2024-02-23T02:14:14;11.50;95.30
18694;DHT22;9477;51.414;10.362;2024-02-23T02:16:19;11.50;95.10
18694;DHT22;9477;51.414;10.362;2024-02-23T02:18:22;11.50;95.20
18694;DHT22;9477;51.414;10.362;2024-02-23T02:20:25;11.50;95.40
18694;DHT22;9477;51.414;10.362;2024-02-23T02:22:29;11.50;95.30
18694;DHT22;9477;51.414;10.362;2024-02-23T02:24:32;11.50;95.10
18694;DHT22;9477;51.414;10.362;2024-02-23T02:26:36;11.40;94.40
18694;DHT22;9477;51.414;10.362;2024-02-23T02:28:39;11.40;94.30
18694;DHT22;9477;51.414;10.362;2024-02-23T02:30:41;11.40;94.40
18694;DHT22;9477;51.414;10.362;2024-02-23T02:32:45;11.50;94.50
18694;DHT22;9477;51.414;10.362;2024-02-23T02:34:49;11.40;94.00
18694;DHT22;9477;51.414;10.362;2024-02-23T02:36:52;11.20;93.10
18694;DHT22;9477;51.414;10.362;2024-02-23T02:38:54;11.00;93.40
18694;DHT22;9477;51.414;10.362;2024-02-23T02:40:57;10.90;93.80
18694;DHT22;9477;51.414;10.362;2024-02-23T02:43:02;10.90;93.50
18694;DHT22;9477;51.414;10.362;2024-02-23T02:45:04;10.80;93.60
18694;DHT22;9477;51.414;10.362;2024-02-23T02:47:07;10.80;93.80
18694;DHT22;9477;51.414;10.362;2024-02-23T02:49:12;10.90;93.80
18694;DHT22;9477;51.414;10.362;2024-02-23T02:51:14;10.90;93.70
18694;DHT22;9477;51.414;10.362;2024-02-23T02:53:17;10.90;93.90
18694;DHT22;9477;51.414;10.362;2024-02-23T02:55:20;10.90;93.80
18694;DHT22;9477;51.414;10.362;2024-02-23T02:57:23;11.00;93.50
18694;DHT22;9477;51.414;10.362;2024-02-23T02:59:26;10.80;93.50
18694;DHT22;9477;51.414;10.362;2024-02-23T03:01:29;10.80;93.70
18694;DHT22;9477;51.414;10.362;2024-02-23T03:03:32;10.80;93.90
18694;DHT22;9477;51.414;10.362;2024-02-23T03:05:42;10.80;93.70
18694;DHT22;9477;51.414;10.362;2024-02-23T03:07:45;10.80;93.50
18694;DHT22;9477;51.414;10.362;2024-02-23T03:09:48;10.70;93.50
18694;DHT22;9477;51.414;10.362;2024-02-23T03:11:52;10.70;93.90
18694;DHT22;9477;51.414;10.362;2024-02-23T03:13:55;10.70;93.80
18694;DHT22;9477;51.414;10.362;2024-02-23T03:15:58;10.60;93.80
18694;DHT22;9477;51.414;10.362;2024-02-23T03:18:01;10.50;93.80
18694;DHT22;9477;51.414;10.362;2024-02-23T03:20:05;10.50;93.80
18694;DHT22;9477;51.414;10.362;2024-02-23T03:22:11;10.50;94.00
18694;DHT22;9477;51.414;10.362;2024-02-23T03:24:14;10.40;94.00
18694;DHT22;9477;51.414;10.362;2024-02-23T03:26:17;10.40;93.70
18694;DHT22;9477;51.414;10.362;2024-02-23T03:28:22;10.30;93.90
18694;DHT22;9477;51.414;10.362;2024-02-23T03:30:25;10.40;94.10
18694;DHT22;9477;51.414;10.362;2024-02-23T03:32:27;10.40;93.90
18694;DHT22;9477;51.414;10.362;2024-02-23T03:34:33;10.40;94.00
18694;DHT22;9477;51.414;10.362;2024-02-23T03:36:36;10.40;94.10
18694;DHT22;9477;51.414;10.362;2024-02-23T03:38:40;10.30;94.10
18694;DHT22;9477;51.414;10.362;2024-02-23T03:40:43;10.30;94.00
18694;DHT22;9477;51.414;10.362;2024-02-23T03:42:46;10.30;94.10
18694;DHT22;9477;51.414;10.362;2024-02-23T03:44:49;10.30;94.30
18694;DHT22;9477;51.414;10.362;2024-02-23T03:46:52;10.30;94.10
18694;DHT22;9477;51.414;10.362;2024-02-23T03:48:55;10.30;94.30
18694;DHT22;9477;51.414;10.362;2024-02-23T03:50:58;10.30;94.20
18694;DHT22;9477;51.414;10.362;2024-02-23T03:53:01;10.30;93.90
18694;DHT22;9477;51.414;10.362;2024-02-23T03:55:06;10.30;93.90
18694;DHT22;9477;51.414;10.362;2024-02-23T03:57:09;10.30;93.80
18694;DHT22;9477;51.414;10.362;2024-02-23T03:59:12;10.30;93.90
18694;DHT22;9477;51.414;10.362;2024-02-23T04:01:16;10.30;93.50
18694;DHT22;9477;51.414;10.362;2024-02-23T04:03:19;10.10;93.50
18694;DHT22;9477;51.414;10.362;2024-02-23T04:05:22;10.00;93.40
18694;DHT22;9477;51.414;10.362;2024-02-23T04:07:24;9.90;94.10
18694;DHT22;9477;51.414;10.362;2024-02-23T04:09:28;9.90;94.30
18694;DHT22;9477;51.414;10.362;2024-02-23T04:11:32;10.00;93.80
18694;DHT22;9477;51.414;10.362;2024-02-23T04:13:35;9.90;94.30
18694;DHT22;9477;51.414;10.362;2024-02-23T04:15:37;9.90;94.20
18694;DHT22;9477;51.414;10.362;2024-02-23T04:17:40;9.90;94.10
18694;DHT22;9477;51.414;10.362;2024-02-23T04:19:43;9.90;94.20
18694;DHT22;9477;51.414;10.362;2024-02-23T04:21:46;9.90;94.40
18694;DHT22;9477;51.414;10.362;2024-02-23T04:23:52;9.90;94.60
18694;DHT22;9477;51.414;10.362;2024-02-23T04:25:54;9.80;94.70
18694;DHT22;9477;51.414;10.362;2024-02-23T04:27:58;9.80;94.90
18694;DHT22;9477;51.414;10.362;2024-02-23T04:30:01;9.80;94.90
18694;DHT22;9477;51.414;10.362;2024-02-23T04:32:04;9.80;94.80
18694;DHT22;9477;51.414;10.362;2024-02-23T04:34:07;9.80;94.90
18694;DHT22;9477;51.414;10.362;2024-02-23T04:36:08;9.80;95.00
18694;DHT22;9477;51.414;10.362;2024-02-23T04:38:11;9.80;94.80
18694;DHT22;9477;51.414;10.362;2024-02-23T04:40:14;9.70;94.70
18694;DHT22;9477;51.414;10.362;2024-02-23T04:42:17;9.70;94.80
18694;DHT22;9477;51.414;10.362;2024-02-23T04:44:21;9.50;94.70
18694;DHT22;9477;51.414;10.362;2024-02-23T04:46:24;9.50;94.80
18694;DHT22;9477;51.414;10.362;2024-02-23T04:48:26;9.50;94.80
18694;DHT22;9477;51.414;10.362;2024-02-23T04:50:29;9.50;95.00
18694;DHT22;9477;51.414;10.362;2024-02-23T04:52:31;9.50;95.10
18694;DHT22;9477;51.414;10.362;2024-02-23T04:54:34;9.60;95.30
18694;DHT22;9477;51.414;10.362;2024-02-23T04:56:37;9.70;95.20
18694;DHT22;9477;51.414;10.362;2024-02-23T04:58:40;9.70;95.20
18694;DHT22;9477;51.414;10.362;2024-02-23T05:00:45;9.80;95.30
18694;DHT22;9477;51.414;10.362;2024-02-23T05:02:48;9.90;95.50
18694;DHT22;9477;51.414;10.362;2024-02-23T05:04:51;9.90;95.40
18694;DHT22;9477;51.414;10.362;2024-02-23T05:06:54;9.90;95.30
18694;DHT22;9477;51.414;10.362;2024-02-23T05:08:57;10.00;94.90
18694;DHT22;9477;51.414;10.362;2024-02-23T05:11:00;10.00;94.90
18694;DHT22;9477;51.414;10.362;2024-02-23T05:13:03;10.00;95.00
18694;DHT22;9477;51.414;10.362;2024-02-23T05:15:07;10.00;94.70
18694;DHT22;9477;51.414;10.362;2024-02-23T05:17:11;9.90;94.90
18694;DHT22;9477;51.414;10.362;2024-02-23T05:19:14;9.90;94.90
18694;DHT22;9477;51.414;10.362;2024-02-23T05:21:17;9.90;94.90
18694;DHT22;9477;51.414;10.362;2024-02-23T05:23:20;9.80;94.90
18694;DHT22;9477;51.414;10.362;2024-02-23T05:25:23;9.80;95.00
18694;DHT22;9477;51.414;10.362;2024-02-23T05:27:27;9.80;94.80
18694;DHT22;9477;51.414;10.362;2024-02-23T05:29:30;9.70;94.90
18694;DHT22;9477;51.414;10.362;2024-02-23T05:31:48;9.70;94.90
18694;DHT22;9477;51.414;10.362;2024-02-23T05:33:52;9.80;95.00
18694;DHT22;9477;51.414;10.362;2024-02-23T05:35:55;9.80;94.90
18694;DHT22;9477;51.414;10.362;2024-02-23T05:37:58;9.70;95.10
18694;DHT22;9477;51.414;10.362;2024-02-23T05:40:01;9.80;95.20
18694;DHT22;9477;51.414;10.362;2024-02-23T05:42:08;9.90;95.30
18694;DHT22;9477;51.414;10.362;2024-02-23T05:44:11;9.90;95.40
18694;DHT22;9477;51.414;10.362;2024-02-23T05:46:15;9.90;95.30
18694;DHT22;9477;51.414;10.362;2024-02-23T05:48:19;9.90;95.30
18694;DHT22;9477;51.414;10.362;2024-02-23T05:50:23;9.90;95.30
18694;DHT22;9477;51.414;10.362;2024-02-23T05:52:26;9.90;95.40
18694;DHT22;9477;51.414;10.362;2024-02-23T05:54:29;9.90;95.50
18694;DHT22;9477;51.414;10.362;2024-02-23T05:56:32;9.90;95.50
18694;DHT22;9477;51.414;10.362;2024-02-23T05:58:35;9.90;95.60
18694;DHT22;9477;51.414;10.362;2024-02-23T06:00:38;9.90;95.60
18694;DHT22;9477;51.414;10.362;2024-02-23T06:02:41;9.80;95.60
18694;DHT22;9477;51.414;10.362;2024-02-23T06:04:44;9.90;95.60
18694;DHT22;9477;51.414;10.362;2024-02-23T06:06:48;9.70;95.50
18694;DHT22;9477;51.414;10.362;2024-02-23T06:08:51;9.70;95.60
18694;DHT22;9477;51.414;10.362;2024-02-23T06:10:53;9.60;95.60
18694;DHT22;9477;51.414;10.362;2024-02-23T06:12:56;9.60;95.60
18694;DHT22;9477;51.414;10.362;2024-02-23T06:15:02;9.60;95.50
18694;DHT22;9477;51.414;10.362;2024-02-23T06:17:04;9.60;95.50
18694;DHT22;9477;51.414;10.362;2024-02-23T06:19:08;9.60;95.60
18694;DHT22;9477;51.414;10.362;2024-02-23T06:21:12;9.60;95.50
18694;DHT22;9477;51.414;10.362;2024-02-23T06:23:17;9.60;95.30
18694;DHT22;9477;51.414;10.362;2024-02-23T06:25:20;9.50;95.20
18694;DHT22;9477;51.414;10.362;2024-02-23T06:27:23;9.50;95.30
18694;DHT22;9477;51.414;10.362;2024-02-23T06:29:27;9.50;95.40
18694;DHT22;9477;51.414;10.362;2024-02-23T06:31:30;9.60;95.30
18694;DHT22;9477;51.414;10.362;2024-02-23T06:33:33;9.60;95.30
18694;DHT22;9477;51.414;10.362;2024-02-23T06:35:36;9.60;95.40
18694;DHT22;9477;51.414;10.362;2024-02-23T06:37:39;9.60;95.30
18694;DHT22;9477;51.414;10.362;2024-02-23T06:39:43;9.60;95.50
18694;DHT22;9477;51.414;10.362;2024-02-23T06:41:51;9.60;95.60
18694;DHT22;9477;51.414;10.362;2024-02-23T06:43:54;9.60;95.40
18694;DHT22;9477;51.414;10.362;2024-02-23T06:46:05;9.50;95.30
18694;DHT22;9477;51.414;10.362;2024-02-23T06:48:08;9.50;95.10
18694;DHT22;9477;51.414;10.362;2024-02-23T06:50:11;9.40;94.90
18694;DHT22;9477;51.414;10.362;2024-02-23T06:52:14;9.40;94.60
18694;DHT22;9477;51.414;10.362;2024-02-23T06:54:17;9.30;94.60
18694;DHT22;9477;51.414;10.362;2024-02-23T06:56:21;9.30;94.70
18694;DHT22;9477;51.414;10.362;2024-02-23T06:58:24;9.30;94.80
18694;DHT22;9477;51.414;10.362;2024-02-23T07:00:27;9.30;94.70
18694;DHT22;9477;51.414;10.362;2024-02-23T07:02:30;9.30;95.10
18694;DHT22;9477;51.414;10.362;2024-02-23T07:04:36;9.40;95.30
18694;DHT22;9477;51.414;10.362;2024-02-23T07:06:38;9.40;95.50
18694;DHT22;9477;51.414;10.362;2024-02-23T07:08:41;9.40;95.50
18694;DHT22;9477;51.414;10.362;2024-02-23T07:10:44;9.40;95.70
18694;DHT22;9477;51.414;10.362;2024-02-23T07:12:53;9.50;95.80
18694;DHT22;9477;51.414;10.362;2024-02-23T07:14:57;9.60;95.90
18694;DHT22;9477;51.414;10.362;2024-02-23T07:17:00;9.60;96.00
18694;DHT22;9477;51.414;10.362;2024-02-23T07:19:03;9.60;95.90
18694;DHT22;9477;51.414;10.362;2024-02-23T07:21:06;9.70;96.00
18694;DHT22;9477;51.414;10.362;2024-02-23T07:23:09;9.60;96.00
18694;DHT22;9477;51.414;10.362;2024-02-23T07:25:15;9.70;96.00
18694;DHT22;9477;51.414;10.362;2024-02-23T07:27:18;9.70;96.00
18694;DHT22;9477;51.414;10.362;2024-02-23T07:29:22;9.60;95.90
18694;DHT22;9477;51.414;10.362;2024-02-23T07:31:24;9.70;96.10
18694;DHT22;9477;51.414;10.362;2024-02-23T07:33:27;9.70;96.10
18694;DHT22;9477;51.414;10.362;2024-02-23T07:35:30;9.80;96.10
18694;DHT22;9477;51.414;10.362;2024-02-23T07:37:33;9.90;96.20
18694;DHT22;9477;51.414;10.362;2024-02-23T07:39:36;9.90;96.00
18694;DHT22;9477;51.414;10.362;2024-02-23T07:41:39;9.80;95.70
18694;DHT22;9477;51.414;10.362;2024-02-23T07:43:42;9.80;95.80
18694;DHT22;9477;51.414;10.362;2024-02-23T07:45:46;9.80;95.80
18694;DHT22;9477;51.414;10.362;2024-02-23T07:47:49;9.80;95.70
18694;DHT22;9477;51.414;10.362;2024-02-23T07:49:51;9.90;95.80
18694;DHT22;9477;51.414;10.362;2024-02-23T07:51:55;9.90;95.80
18694;DHT22;9477;51.414;10.362;2024-02-23T07:53:58;9.90;95.60
18694;DHT22;9477;51.414;10.362;2024-02-23T07:56:01;9.90;95.50
18694;DHT22;9477;51.414;10.362;2024-02-23T07:58:05;9.80;95.30
18694;DHT22;9477;51.414;10.362;2024-02-23T08:00:08;9.80;95.30
18694;DHT22;9477;51.414;10.362;2024-02-23T08:02:14;9.80;95.20
18694;DHT22;9477;51.414;10.362;2024-02-23T08:04:17;9.70;95.20
18694;DHT22;9477;51.414;10.362;2024-02-23T08:06:21;9.80;95.40
18694;DHT22;9477;51.414;10.362;2024-02-23T08:08:23;9.80;95.30
18694;DHT22;9477;51.414;10.362;2024-02-23T08:10:28;9.80;95.30
18694;DHT22;9477;51.414;10.362;2024-02-23T08:12:31;9.80;95.30
18694;DHT22;9477;51.414;10.362;2024-02-23T08:14:36;9.80;95.30
18694;DHT22;9477;51.414;10.362;2024-02-23T08:16:39;9.80;95.30
18694;DHT22;9477;51.414;10.362;2024-02-23T08:18:43;9.80;95.30
18694;DHT22;9477;51.414;10.362;2024-02-23T08:20:46;9.80;95.30
18694;DHT22;9477;51.414;10.362;2024-02-23T08:22:49;9.90;95.40
18694;DHT22;9477;51.414;10.362;2024-02-23T08:24:52;9.90;95.40
18694;DHT22;9477;51.414;10.362;2024-02-23T08:26:54;9.90;95.50
18694;DHT22;9477;51.414;10.362;2024-02-23T08:28:57;10.00;95.10
18694;DHT22;9477;51.414;10.362;2024-02-23T08:31:00;10.00;95.20
18694;DHT22;9477;51.414;10.362;2024-02-23T08:33:03;10.10;95.00
18694;DHT22;9477;51.414;10.362;2024-02-23T08:35:08;10.10;94.70
18694;DHT22;9477;51.414;10.362;2024-02-23T08:37:11;10.10;94.70
18694;DHT22;9477;51.414;10.362;2024-02-23T08:39:14;10.10;94.80
18694;DHT22;9477;51.414;10.362;2024-02-23T08:41:17;10.00;94.80
18694;DHT22;9477;51.414;10.362;2024-02-23T08:43:20;10.10;95.00
18694;DHT22;9477;51.414;10.362;2024-02-23T08:45:23;10.20;95.00
18694;DHT22;9477;51.414;10.362;2024-02-23T08:47:25;10.20;95.00
18694;DHT22;9477;51.414;10.362;2024-02-23T08:49:34;10.30;94.80
18694;DHT22;9477;51.414;10.362;2024-02-23T08:51:38;10.30;95.10
18694;DHT22;9477;51.414;10.362;2024-02-23T08:53:40;10.30;94.60
18694;DHT22;9477;51.414;10.362;2024-02-23T08:55:43;10.20;94.40
18694;DHT22;9477;51.414;10.362;2024-02-23T08:57:45;10.20;94.50
18694;DHT22;9477;51.414;10.362;2024-02-23T08:59:48;10.30;94.60
18694;DHT22;9477;51.414;10.362;2024-02-23T09:01:51;10.30;94.60
18694;DHT22;9477;51.414;10.362;2024-02-23T09:03:54;10.40;94.70
18694;DHT22;9477;51.414;10.362;2024-02-23T09:05:57;10.50;95.00
18694;DHT22;9477;51.414;10.362;2024-02-23T09:08:02;10.60;94.80
18694;DHT22;9477;51.414;10.362;2024-02-23T09:10:05;10.60;94.90
18694;DHT22;9477;51.414;10.362;2024-02-23T09:12:08;10.60;94.30
18694;DHT22;9477;51.414;10.362;2024-02-23T09:14:13;10.60;94.30
18694;DHT22;9477;51.414;10.362;2024-02-23T09:16:16;10.60;94.50
18694;DHT22;9477;51.414;10.362;2024-02-23T09:18:19;10.70;94.40
18694;DHT22;9477;51.414;10.362;2024-02-23T09:20:22;10.70;94.70
18694;DHT22;9477;51.414;10.362;2024-02-23T09:22:25;10.90;94.80
18694;DHT22;9477;51.414;10.362;2024-02-23T09:24:29;10.90;94.40
18694;DHT22;9477;51.414;10.362;2024-02-23T09:26:32;10.90;94.40
18694;DHT22;9477;51.414;10.362;2024-02-23T09:28:35;11.00;94.30
18694;DHT22;9477;51.414;10.362;2024-02-23T09:30:38;11.00;94.10
18694;DHT22;9477;51.414;10.362;2024-02-23T09:32:41;10.90;93.80
18694;DHT22;9477;51.414;10.362;2024-02-23T09:34:44;10.90;93.90
18694;DHT22;9477;51.414;10.362;2024-02-23T09:36:47;10.90;93.90
18694;DHT22;9477;51.414;10.362;2024-02-23T09:38:50;10.90;93.50
18694;DHT22;9477;51.414;10.362;2024-02-23T09:40:54;10.80;93.80
18694;DHT22;9477;51.414;10.362;2024-02-23T09:42:58;10.80;93.80
18694;DHT22;9477;51.414;10.362;2024-02-23T09:45:01;10.80;93.60
18694;DHT22;9477;51.414;10.362;2024-02-23T09:47:05;10.80;93.60
18694;DHT22;9477;51.414;10.362;2024-02-23T09:49:12;10.80;93.80
18694;DHT22;9477;51.414;10.362;2024-02-23T09:51:18;10.90;94.00
18694;DHT22;9477;51.414;10.362;2024-02-23T09:53:22;10.90;93.70
18694;DHT22;9477;51.414;10.362;2024-02-23T09:55:25;10.90;93.40
18694;DHT22;9477;51.414;10.362;2024-02-23T09:57:29;10.90;93.70
18694;DHT22;9477;51.414;10.362;2024-02-23T09:59:33;11.00;93.70
18694;DHT22;9477;51.414;10.362;2024-02-23T10:01:37;11.00;93.60
18694;DHT22;9477;51.414;10.362;2024-02-23T10:03:40;11.10;93.80
18694;DHT22;9477;51.414;10.362;2024-02-23T10:05:43;11.10;94.00
18694;DHT22;9477;51.414;10.362;2024-02-23T10:07:47;11.20;94.00
18694;DHT22;9477;51.414;10.362;2024-02-23T10:09:50;11.30;94.00
18694;DHT22;9477;51.414;10.362;2024-02-23T10:11:53;11.30;93.50
18694;DHT22;9477;51.414;10.362;2024-02-23T10:13:58;11.30;93.70
18694;DHT22;9477;51.414;10.362;2024-02-23T10:16:01;11.30;93.50
18694;DHT22;9477;51.414;10.362;2024-02-23T10:18:16;11.30;93.40
18694;DHT22;9477;51.414;10.362;2024-02-23T10:20:19;11.40;93.30
18694;DHT22;9477;51.414;10.362;2024-02-23T10:22:22;11.40;93.10
18694;DHT22;9477;51.414;10.362;2024-02-23T10:24:26;11.30;93.10
18694;DHT22;9477;51.414;10.362;2024-02-23T10:26:29;11.30;93.30
18694;DHT22;9477;51.414;10.362;2024-02-23T10:28:31;11.40;92.80
18694;DHT22;9477;51.414;10.362;2024-02-23T10:30:36;11.40;93.20
18694;DHT22;9477;51.414;10.362;2024-02-23T10:32:39;11.40;93.20
18694;DHT22;9477;51.414;10.362;2024-02-23T10:34:43;11.60;93.40
18694;DHT22;9477;51.414;10.362;2024-02-23T10:36:46;11.60;93.30
18694;DHT22;9477;51.414;10.362;2024-02-23T10:38:56;11.70;93.40
18694;DHT22;9477;51.414;10.362;2024-02-23T10:41:05;11.80;93.10
18694;DHT22;9477;51.414;10.362;2024-02-23T10:43:12;11.80;93.10
18694;DHT22;9477;51.414;10.362;2024-02-23T10:45:19;11.80;93.40
18694;DHT22;9477;51.414;10.362;2024-02-23T10:47:24;11.90;93.60
18694;DHT22;9477;51.414;10.362;2024-02-23T10:49:28;12.00;92.70
18694;DHT22;9477;51.414;10.362;2024-02-23T10:51:32;11.90;92.70
18694;DHT22;9477;51.414;10.362;2024-02-23T10:53:36;11.90;92.70
18694;DHT22;9477;51.414;10.362;2024-02-23T10:55:40;11.80;92.70
18694;DHT22;9477;51.414;10.362;2024-02-23T10:57:45;11.80;92.90
18694;DHT22;9477;51.414;10.362;2024-02-23T10:59:50;11.80;92.90
18694;DHT22;9477;51.414;10.362;2024-02-23T11:01:54;11.90;92.90
18694;DHT22;9477;51.414;10.362;2024-02-23T11:04:01;11.90;92.40
18694;DHT22;9477;51.414;10.362;2024-02-23T11:06:06;11.80;92.70
18694;DHT22;9477;51.414;10.362;2024-02-23T11:08:09;11.90;92.60
18694;DHT22;9477;51.414;10.362;2024-02-23T11:10:13;11.80;92.40
18694;DHT22;9477;51.414;10.362;2024-02-23T11:12:23;11.80;92.60
18694;DHT22;9477;51.414;10.362;2024-02-23T11:14:30;11.80;92.40
18694;DHT22;9477;51.414;10.362;2024-02-23T11:16:38;11.80;92.60
18694;DHT22;9477;51.414;10.362;2024-02-23T11:18:42;11.80;92.50
18694;DHT22;9477;51.414;10.362;2024-02-23T11:20:54;11.80;92.00
18694;DHT22;9477;51.414;10.362;2024-02-23T11:22:57;11.70;92.00
18694;DHT22;9477;51.414;10.362;2024-02-23T11:25:01;11.60;92.30
18694;DHT22;9477;51.414;10.362;2024-02-23T11:27:05;11.50;92.40
18694;DHT22;9477;51.414;10.362;2024-02-23T11:29:11;11.50;92.60
18694;DHT22;9477;51.414;10.362;2024-02-23T11:31:15;11.50;92.80
18694;DHT22;9477;51.414;10.362;2024-02-23T11:33:25;11.60;92.80
18694;DHT22;9477;51.414;10.362;2024-02-23T11:35:29;11.60;92.70
18694;DHT22;9477;51.414;10.362;2024-02-23T11:37:44;11.60;92.90
18694;DHT22;9477;51.414;10.362;2024-02-23T11:39:48;11.60;92.60
18694;DHT22;9477;51.414;10.362;2024-02-23T11:41:51;11.60;92.80
18694;DHT22;9477;51.414;10.362;2024-02-23T11:43:55;11.60;93.00
18694;DHT22;9477;51.414;10.362;2024-02-23T11:46:00;11.60;93.10
18694;DHT22;9477;51.414;10.362;2024-02-23T11:48:01;11.60;92.90
18694;DHT22;9477;51.414;10.362;2024-02-23T11:50:08;11.60;92.80
18694;DHT22;9477;51.414;10.362;2024-02-23T11:52:11;11.60;93.00
18694;DHT22;9477;51.414;10.362;2024-02-23T11:54:15;11.60;92.90
18694;DHT22;9477;51.414;10.362;2024-02-23T11:56:19;11.60;92.90
18694;DHT22;9477;51.414;10.362;2024-02-23T11:58:21;11.60;93.00
18694;DHT22;9477;51.414;10.362;2024-02-23T12:00:24;11.60;93.00
18694;DHT22;9477;51.414;10.362;2024-02-23T12:02:27;11.70;93.30
18694;DHT22;9477;51.414;10.362;2024-02-23T12:04:33;11.70;93.30
18694;DHT22;9477;51.414;10.362;2024-02-23T12:06:36;11.80;93.20
18694;DHT22;9477;51.414;10.362;2024-02-23T12:08:39;11.80;93.20
18694;DHT22;9477;51.414;10.362;2024-02-23T12:10:47;11.80;92.90
18694;DHT22;9477;51.414;10.362;2024-02-23T12:12:50;11.90;93.10
18694;DHT22;9477;51.414;10.362;2024-02-23T12:14:53;11.90;92.70
18694;DHT22;9477;51.414;10.362;2024-02-23T12:16:57;11.90;92.50
18694;DHT22;9477;51.414;10.362;2024-02-23T12:19:01;11.90;92.20
18694;DHT22;9477;51.414;10.362;2024-02-23T12:21:06;11.90;92.20
18694;DHT22;9477;51.414;10.362;2024-02-23T12:23:11;11.90;92.40
18694;DHT22;9477;51.414;10.362;2024-02-23T12:25:13;11.90;92.40
18694;DHT22;9477;51.414;10.362;2024-02-23T12:27:18;12.00;92.40
18694;DHT22;9477;51.414;10.362;2024-02-23T12:29:24;12.10;92.40
18694;DHT22;9477;51.414;10.362;2024-02-23T12:31:27;12.10;92.40
18694;DHT22;9477;51.414;10.362;2024-02-23T12:33:29;12.10;92.30
18694;DHT22;9477;51.414;10.362;2024-02-23T12:35:33;12.20;92.10
18694;DHT22;9477;51.414;10.362;2024-02-23T12:37:36;12.20;91.90
18694;DHT22;9477;51.414;10.362;2024-02-23T12:39:45;12.10;92.00
18694;DHT22;9477;51.414;10.362;2024-02-23T12:41:47;12.10;92.40
18694;DHT22;9477;51.414;10.362;2024-02-23T12:43:53;12.10;92.40
18694;DHT22;9477;51.414;10.362;2024-02-23T12:45:57;12.30;92.50
18694;DHT22;9477;51.414;10.362;2024-02-23T12:48:00;12.30;92.60
18694;DHT22;9477;51.414;10.362;2024-02-23T12:50:02;12.30;92.60
18694;DHT22;9477;51.414;10.362;2024-02-23T12:52:05;12.40;92.70
18694;DHT22;9477;51.414;10.362;2024-02-23T12:54:08;12.40;92.70
18694;DHT22;9477;51.414;10.362;2024-02-23T12:56:12;12.40;92.60
18694;DHT22;9477;51.414;10.362;2024-02-23T12:58:18;12.50;92.60
18694;DHT22;9477;51.414;10.362;2024-02-23T13:00:21;12.50;92.20
18694;DHT22;9477;51.414;10.362;2024-02-23T13:02:24;12.50;92.30
18694;DHT22;9477;51.414;10.362;2024-02-23T13:04:27;12.50;92.40